createdAt,value
2019-01-22T00:00:37.120Z,24.13
2019-01-22T00:03:06.228Z,22.73
2019-01-22T00:05:35.518Z,21.23
2019-01-22T00:08:04.990Z,20.37
2019-01-22T00:10:34.374Z,20.67
2019-01-22T00:13:03.528Z,18.90
2019-01-22T00:15:32.609Z,20.40
2019-01-22T00:18:01.896Z,18.63
2019-01-22T00:20:30.995Z,19.63
2019-01-22T00:23:02.948Z,20.10
2019-01-22T00:25:31.158Z,19.03
2019-01-22T00:28:00.368Z,19.97
2019-01-22T00:30:29.506Z,20.50
2019-01-22T00:32:58.687Z,21.10
2019-01-22T00:35:27.781Z,19.50
2019-01-22T00:37:56.870Z,20.07
2019-01-22T00:40:26.412Z,20.17
2019-01-22T00:42:55.552Z,19.00
2019-01-22T00:45:24.712Z,19.63
2019-01-22T00:47:54.055Z,19.83
2019-01-22T00:50:23.105Z,19.67
2019-01-22T00:52:52.215Z,18.30
2019-01-22T00:55:21.669Z,20.73
2019-01-22T00:57:50.864Z,20.37
2019-01-22T01:00:31.273Z,23.03
2019-01-22T01:03:00.413Z,25.83
2019-01-22T01:05:29.860Z,26.00
2019-01-22T01:07:59.097Z,26.17
2019-01-22T01:10:28.216Z,26.13
2019-01-22T01:12:57.424Z,26.50
2019-01-22T01:15:26.734Z,27.03
2019-01-22T01:17:55.836Z,28.37
2019-01-22T01:20:25.022Z,27.93
2019-01-22T01:22:54.511Z,29.50
2019-01-22T01:25:23.867Z,29.13
2019-01-22T01:27:53.006Z,28.73
2019-01-22T01:30:24.183Z,30.17
2019-01-22T01:32:53.646Z,30.30
2019-01-22T01:35:22.941Z,30.33
2019-01-22T01:37:52.397Z,30.00
2019-01-22T01:40:21.508Z,32.27
2019-01-22T01:42:50.617Z,31.13
2019-01-22T01:45:19.962Z,31.13
2019-01-22T01:47:49.201Z,30.47
2019-01-22T01:50:18.961Z,29.73
2019-01-22T01:52:48.268Z,27.63
2019-01-22T01:55:18.063Z,29.40
2019-01-22T01:57:47.166Z,31.13
2019-01-22T02:00:18.731Z,30.57
2019-01-22T02:02:47.839Z,31.43
2019-01-22T02:05:16.913Z,35.87
2019-01-22T02:07:46.411Z,32.73
2019-01-22T02:10:17.960Z,32.37
2019-01-22T02:13:23.251Z,36.03
2019-01-22T02:16:17.454Z,32.37
2019-01-22T02:19:18.400Z,33.10
2019-01-22T02:22:24.825Z,32.80
2019-01-22T02:25:17.168Z,34.87
2019-01-22T02:28:23.780Z,33.50
2019-01-22T02:31:49.970Z,32.67
2019-01-22T02:34:47.407Z,31.27
2019-01-22T02:38:09.056Z,33.17
2019-01-22T02:41:06.407Z,31.93
2019-01-22T02:44:17.580Z,29.70
2019-01-22T02:47:21.309Z,30.77
2019-01-22T02:50:46.806Z,32.80
2019-01-22T02:53:23.262Z,31.40
2019-01-22T02:56:15.889Z,31.80
2019-01-22T02:59:26.468Z,35.37
2019-01-22T03:02:52.013Z,34.67
2019-01-22T03:05:38.123Z,33.47
2019-01-22T03:08:42.922Z,33.53
2019-01-22T03:11:32.164Z,34.70
2019-01-22T03:14:35.661Z,34.20
2019-01-22T03:17:44.608Z,33.30
2019-01-22T03:20:47.520Z,34.40
2019-01-22T03:24:09.059Z,33.93
2019-01-22T03:27:08.253Z,33.80
2019-01-22T03:30:06.511Z,36.47
2019-01-22T03:32:51.778Z,35.60
2019-01-22T03:35:45.934Z,35.53
2019-01-22T03:38:40.641Z,34.80
2019-01-22T03:41:34.307Z,34.03
2019-01-22T03:44:29.085Z,37.60
2019-01-22T03:47:18.614Z,37.30
2019-01-22T03:50:00.200Z,36.87
2019-01-22T03:53:06.046Z,37.60
2019-01-22T03:56:03.412Z,36.97
2019-01-22T03:58:32.591Z,36.07
2019-01-22T04:01:08.665Z,38.47
2019-01-22T04:03:38.458Z,38.57
2019-01-22T04:06:25.897Z,39.13
2019-01-22T04:08:56.300Z,39.23
2019-01-22T04:11:32.515Z,38.63
2019-01-22T04:14:01.776Z,37.40
2019-01-22T04:16:31.215Z,37.37
2019-01-22T04:19:00.531Z,35.33
2019-01-22T04:21:36.984Z,39.03
2019-01-22T04:24:30.575Z,36.80
2019-01-22T04:27:10.344Z,37.33
2019-01-22T04:30:20.449Z,37.20
2019-01-22T04:33:12.431Z,36.87
2019-01-22T04:36:36.089Z,36.83
2019-01-22T04:39:38.954Z,35.90
2019-01-22T04:42:51.511Z,35.67
2019-01-22T04:46:22.649Z,35.37
2019-01-22T04:49:15.634Z,35.40
2019-01-22T04:52:43.453Z,32.63
2019-01-22T04:55:48.088Z,30.73
2019-01-22T04:58:27.796Z,31.90
2019-01-22T05:01:38.100Z,30.97
2019-01-22T05:04:32.966Z,30.87
2019-01-22T05:07:40.425Z,30.70
2019-01-22T05:10:24.531Z,32.87
2019-01-22T05:13:18.827Z,32.37
2019-01-22T05:16:16.283Z,33.27
2019-01-22T05:19:19.383Z,44.63
2019-01-22T05:22:15.835Z,37.20
2019-01-22T05:25:09.223Z,36.37
2019-01-22T05:28:06.430Z,33.87
2019-01-22T05:30:47.214Z,33.10
2019-01-22T05:33:31.245Z,31.80
2019-01-22T05:36:39.801Z,31.23
2019-01-22T05:39:27.578Z,28.67
2019-01-22T05:42:39.575Z,30.90
2019-01-22T05:45:22.531Z,33.10
2019-01-22T05:48:13.387Z,36.67
2019-01-22T05:51:21.158Z,33.87
2019-01-22T05:54:28.397Z,31.30
2019-01-22T05:57:44.725Z,33.43
2019-01-22T06:00:53.048Z,38.03
2019-01-22T06:03:37.280Z,37.70
2019-01-22T06:06:37.224Z,34.60
2019-01-22T06:09:26.018Z,31.53
2019-01-22T06:12:16.742Z,30.43
2019-01-22T06:15:12.033Z,31.70
2019-01-22T06:18:16.887Z,37.47
2019-01-22T06:21:25.612Z,34.60
2019-01-22T06:24:21.266Z,29.13
2019-01-22T06:26:57.512Z,28.33
2019-01-22T06:30:11.075Z,27.83
2019-01-22T06:32:54.601Z,26.87
2019-01-22T06:35:58.704Z,26.87
2019-01-22T06:39:36.178Z,27.17
2019-01-22T06:42:42.071Z,26.87
2019-01-22T06:45:47.909Z,25.27
2019-01-22T06:48:58.398Z,24.63
2019-01-22T06:52:20.348Z,26.27
2019-01-22T06:55:20.364Z,26.17
2019-01-22T06:58:25.094Z,26.40
2019-01-22T07:01:19.818Z,24.53
2019-01-22T07:04:26.874Z,26.13
2019-01-22T07:07:46.388Z,23.00
2019-01-22T07:10:59.556Z,25.50
2019-01-22T07:14:15.953Z,23.27
2019-01-22T07:17:07.719Z,24.37
2019-01-22T07:19:58.427Z,23.27
2019-01-22T07:22:37.328Z,23.97
2019-01-22T07:25:36.301Z,23.07
2019-01-22T07:28:25.771Z,23.13
2019-01-22T07:31:45.637Z,22.27
2019-01-22T07:34:44.567Z,23.07
2019-01-22T07:37:50.836Z,22.97
2019-01-22T07:41:02.179Z,23.03
2019-01-22T07:44:05.483Z,22.83
2019-01-22T07:47:03.391Z,22.03
2019-01-22T07:49:54.744Z,21.00
2019-01-22T07:52:42.207Z,21.73
2019-01-22T07:55:25.987Z,22.20
2019-01-22T07:58:32.099Z,21.40
2019-01-22T08:01:33.276Z,22.77
2019-01-22T08:04:52.712Z,21.47
2019-01-22T08:07:57.287Z,21.73
2019-01-22T08:11:10.084Z,21.47
2019-01-22T08:14:17.710Z,20.77
2019-01-22T08:17:29.673Z,20.87
2019-01-22T08:20:48.707Z,21.10
2019-01-22T08:24:00.438Z,20.50
2019-01-22T08:27:19.918Z,20.97
2019-01-22T08:30:20.120Z,22.20
2019-01-22T08:33:24.813Z,23.33
2019-01-22T08:36:53.123Z,24.50
2019-01-22T08:39:54.772Z,20.73
2019-01-22T08:42:55.487Z,19.23
2019-01-22T08:46:08.537Z,19.67
2019-01-22T08:49:23.113Z,17.23
2019-01-22T08:52:22.460Z,17.67
2019-01-22T08:55:42.322Z,17.20
2019-01-22T08:58:33.877Z,18.23
2019-01-22T09:01:27.056Z,18.07
2019-01-22T09:05:04.456Z,17.43
2019-01-22T09:08:10.729Z,17.23
2019-01-22T09:11:24.866Z,16.50
2019-01-22T09:14:28.803Z,18.53
2019-01-22T09:17:29.849Z,17.07
2019-01-22T09:20:20.351Z,16.87
2019-01-22T09:23:23.107Z,16.10
2019-01-22T09:26:17.970Z,16.87
2019-01-22T09:29:25.497Z,16.83
2019-01-22T09:32:14.719Z,16.70
2019-01-22T09:35:28.864Z,16.87
2019-01-22T09:38:01.794Z,15.90
2019-01-22T09:40:31.096Z,16.70
2019-01-22T09:43:00.295Z,16.73
2019-01-22T09:45:29.417Z,16.70
2019-01-22T09:47:58.668Z,16.77
2019-01-22T09:50:27.866Z,16.13
2019-01-22T09:52:56.969Z,16.30
2019-01-22T09:55:30.303Z,17.13
2019-01-22T09:57:57.114Z,16.03
2019-01-22T10:00:26.295Z,16.30
2019-01-22T10:02:55.624Z,15.67
2019-01-22T10:05:24.679Z,16.40
2019-01-22T10:07:53.802Z,15.60
2019-01-22T10:10:23.186Z,15.40
2019-01-22T10:12:52.346Z,14.70
2019-01-22T10:15:21.850Z,13.90
2019-01-22T10:17:51.128Z,14.73
2019-01-22T10:20:22.016Z,14.03
2019-01-22T10:22:51.278Z,13.27
2019-01-22T10:25:20.676Z,12.20
2019-01-22T10:27:49.791Z,11.97
2019-01-22T10:30:21.232Z,10.93
2019-01-22T10:32:50.384Z,10.87
2019-01-22T10:35:19.530Z,8.30
2019-01-22T10:37:48.837Z,6.63
2019-01-22T10:40:19.527Z,6.60
2019-01-22T10:42:48.599Z,6.77
2019-01-22T10:45:18.303Z,7.73
2019-01-22T10:47:47.373Z,7.97
2019-01-22T10:50:17.799Z,8.23
2019-01-22T10:52:47.153Z,7.67
2019-01-22T10:55:16.318Z,7.53
2019-01-22T10:57:45.377Z,7.83
2019-01-22T11:00:17.458Z,7.27
2019-01-22T11:02:46.485Z,7.13
2019-01-22T11:05:19.497Z,7.93
2019-01-22T11:07:48.646Z,7.97
2019-01-22T11:10:17.768Z,9.37
2019-01-22T11:12:46.958Z,10.77
2019-01-22T11:15:16.208Z,11.17
2019-01-22T11:17:45.387Z,11.07
2019-01-22T11:20:17.271Z,11.80
2019-01-22T11:22:46.373Z,10.93
2019-01-22T11:25:15.841Z,12.33
2019-01-22T11:27:45.152Z,11.23
2019-01-22T11:30:16.756Z,11.90
2019-01-22T11:32:45.956Z,12.10
2019-01-22T11:35:15.384Z,11.23
2019-01-22T11:37:44.553Z,12.37
2019-01-22T11:40:17.127Z,11.03
2019-01-22T11:42:46.309Z,11.67
2019-01-22T11:45:15.401Z,11.20
2019-01-22T11:47:44.543Z,10.67
2019-01-22T11:50:15.737Z,10.10
2019-01-22T11:52:44.996Z,9.97
2019-01-22T11:55:14.128Z,10.37
2019-01-22T11:57:43.215Z,11.50
2019-01-22T12:00:17.120Z,13.13
2019-01-22T12:02:46.278Z,13.57
2019-01-22T12:05:15.461Z,13.23
2019-01-22T12:07:44.706Z,13.77
2019-01-22T12:10:13.799Z,12.70
2019-01-22T12:12:42.937Z,13.13
2019-01-22T12:15:13.893Z,12.77
2019-01-22T12:17:43.034Z,12.03
2019-01-22T12:20:18.055Z,12.30
2019-01-22T12:22:47.289Z,11.50
2019-01-22T12:25:16.433Z,12.23
2019-01-22T12:27:45.718Z,12.50
2019-01-22T12:30:18.313Z,13.33
2019-01-22T12:32:47.526Z,12.17
2019-01-22T12:35:16.748Z,13.10
2019-01-22T12:37:45.881Z,13.87
2019-01-22T12:40:16.388Z,12.93
2019-01-22T12:42:45.490Z,12.80
2019-01-22T12:45:17.968Z,12.50
2019-01-22T12:47:47.071Z,12.37
2019-01-22T12:50:16.772Z,12.87
2019-01-22T12:52:46.128Z,12.97
2019-01-22T12:55:15.274Z,12.43
2019-01-22T12:57:44.340Z,13.67
2019-01-22T13:00:22.032Z,13.03
2019-01-22T13:02:51.285Z,12.37
2019-01-22T13:05:37.269Z,12.63
2019-01-22T13:08:06.405Z,12.67
2019-01-22T13:10:35.523Z,12.90
2019-01-22T13:13:04.809Z,13.40
2019-01-22T13:15:33.948Z,14.33
2019-01-22T13:18:03.125Z,13.33
2019-01-22T13:20:32.376Z,13.63
2019-01-22T13:23:01.442Z,14.07
2019-01-22T13:25:30.551Z,14.13
2019-01-22T13:27:59.822Z,14.43
2019-01-22T13:30:29.011Z,13.63
2019-01-22T13:32:58.201Z,13.30
2019-01-22T13:35:27.534Z,13.03
2019-01-22T13:37:56.686Z,12.93
2019-01-22T13:40:25.721Z,12.83
2019-01-22T13:42:54.961Z,13.07
2019-01-22T13:45:25.815Z,13.37
2019-01-22T13:47:55.511Z,12.83
2019-01-22T13:50:24.862Z,13.27
2019-01-22T13:52:53.990Z,13.13
2019-01-22T13:55:25.516Z,13.90
2019-01-22T13:57:54.781Z,12.63
2019-01-22T14:00:24.346Z,13.47
2019-01-22T14:02:54.058Z,13.30
2019-01-22T14:05:23.300Z,13.33
2019-01-22T14:07:52.384Z,14.97
2019-01-22T14:10:21.514Z,13.97
2019-01-22T14:12:50.799Z,14.00
2019-01-22T14:15:22.241Z,13.50
2019-01-22T14:17:51.385Z,14.53
2019-01-22T14:20:20.704Z,14.53
2019-01-22T14:22:49.831Z,13.53
2019-01-22T14:25:19.836Z,14.27
2019-01-22T14:27:49.158Z,14.57
2019-01-22T14:30:24.275Z,15.10
2019-01-22T14:32:53.521Z,14.97
2019-01-22T14:35:22.654Z,15.40
2019-01-22T14:37:51.785Z,15.10
2019-01-22T14:40:20.996Z,14.47
2019-01-22T14:42:50.141Z,13.60
2019-01-22T14:45:19.308Z,14.97
2019-01-22T14:47:48.520Z,13.97
2019-01-22T14:50:22.402Z,13.57
2019-01-22T14:52:51.710Z,14.23
2019-01-22T14:55:20.801Z,13.47
2019-01-22T14:57:50.026Z,13.87
2019-01-22T15:00:23.976Z,14.20
2019-01-22T15:02:53.073Z,13.77
2019-01-22T15:05:22.240Z,14.27
2019-01-22T15:07:51.484Z,14.33
2019-01-22T15:10:20.672Z,14.53
2019-01-22T15:12:51.491Z,15.70
2019-01-22T15:15:20.889Z,14.17
2019-01-22T15:17:50.018Z,13.97
2019-01-22T15:20:26.049Z,13.60
2019-01-22T15:22:55.124Z,13.83
2019-01-22T15:25:24.228Z,14.20
2019-01-22T15:27:53.602Z,13.23
2019-01-22T15:30:41.985Z,14.20
2019-01-22T15:33:11.242Z,13.90
2019-01-22T15:35:40.357Z,15.27
2019-01-22T15:38:09.462Z,13.93
2019-01-22T15:40:38.710Z,13.80
2019-01-22T15:43:07.858Z,17.30
2019-01-22T15:45:36.935Z,17.97
2019-01-22T15:48:06.177Z,15.70
2019-01-22T15:50:35.340Z,16.17
2019-01-22T15:53:04.492Z,16.83
2019-01-22T15:55:36.263Z,16.40
2019-01-22T15:58:06.219Z,17.13
2019-01-22T16:00:35.300Z,17.97
2019-01-22T16:03:04.636Z,18.00
2019-01-22T16:05:33.756Z,18.30
2019-01-22T16:08:03.106Z,20.10
2019-01-22T16:10:32.413Z,19.00
2019-01-22T16:13:01.507Z,20.40
2019-01-22T16:15:30.669Z,20.97
2019-01-22T16:18:00.035Z,20.57
2019-01-22T16:20:29.083Z,22.83
2019-01-22T16:22:58.224Z,21.13
2019-01-22T16:25:27.553Z,21.13
2019-01-22T16:27:57.434Z,20.17
2019-01-22T16:30:27.331Z,20.00
2019-01-22T16:32:56.808Z,19.27
2019-01-22T16:35:27.268Z,18.70
2019-01-22T16:37:56.332Z,18.37
2019-01-22T16:40:25.713Z,19.63
2019-01-22T16:42:54.845Z,19.80
2019-01-22T16:45:29.842Z,21.27
2019-01-22T16:47:59.014Z,18.97
2019-01-22T16:50:29.288Z,25.93
2019-01-22T16:52:58.712Z,29.93
2019-01-22T16:55:29.827Z,22.80
2019-01-22T16:57:59.235Z,20.90
2019-01-22T17:00:30.053Z,20.50
2019-01-22T17:02:59.268Z,21.93
2019-01-22T17:05:28.686Z,19.77
2019-01-22T17:07:57.809Z,19.70
2019-01-22T17:10:26.966Z,17.97
2019-01-22T17:12:56.276Z,15.73
2019-01-22T17:15:25.376Z,14.43
2019-01-22T17:17:54.557Z,14.43
2019-01-22T17:20:32.048Z,14.73
2019-01-22T17:23:02.237Z,15.60
2019-01-22T17:25:31.748Z,15.57
2019-01-22T17:28:01.045Z,15.73
2019-01-22T17:30:30.962Z,15.07
2019-01-22T17:33:34.560Z,14.87
2019-01-22T17:36:03.656Z,15.03
2019-01-22T17:38:32.782Z,15.57
2019-01-22T17:41:02.120Z,14.33
2019-01-22T17:43:31.315Z,13.67
2019-01-22T17:46:00.501Z,14.17
2019-01-22T17:48:29.726Z,13.53
2019-01-22T17:50:58.831Z,12.90
2019-01-22T17:53:27.975Z,12.87
2019-01-22T17:55:57.439Z,12.67
2019-01-22T17:58:26.592Z,12.40
2019-01-22T18:00:55.936Z,12.47
2019-01-22T18:03:25.100Z,12.80
2019-01-22T18:05:55.380Z,12.73
2019-01-22T18:08:24.523Z,13.87
2019-01-22T18:10:53.783Z,13.00
2019-01-22T18:13:23.031Z,12.47
2019-01-22T18:15:52.171Z,12.50
2019-01-22T18:18:21.526Z,13.57
2019-01-22T18:20:50.653Z,17.50
2019-01-22T18:23:19.745Z,15.97
2019-01-22T18:25:48.888Z,15.80
2019-01-22T18:28:18.041Z,13.47
2019-01-22T18:30:47.210Z,14.57
2019-01-22T18:33:16.532Z,12.90
2019-01-22T18:35:46.484Z,12.63
2019-01-22T18:38:16.990Z,18.17
2019-01-22T18:40:46.181Z,23.53
2019-01-22T18:43:15.597Z,23.27
2019-01-22T18:45:44.805Z,18.47
2019-01-22T18:48:13.989Z,23.37
2019-01-22T18:50:43.123Z,22.20
2019-01-22T18:53:12.540Z,23.37
2019-01-22T18:55:41.753Z,32.97
2019-01-22T18:58:10.860Z,33.77
2019-01-22T19:00:40.334Z,34.30
2019-01-22T19:03:09.490Z,25.13
2019-01-22T19:05:38.533Z,28.50
2019-01-22T19:08:07.617Z,35.70
2019-01-22T19:10:36.808Z,23.93
2019-01-22T19:13:06.046Z,27.27
2019-01-22T19:15:35.301Z,28.27
2019-01-22T19:18:04.428Z,34.73
2019-01-22T19:20:33.550Z,32.93
2019-01-22T19:23:02.913Z,29.33
2019-01-22T19:25:32.121Z,25.10
2019-01-22T19:28:01.296Z,25.63
2019-01-22T19:30:31.346Z,24.23
2019-01-22T19:33:00.468Z,25.37
2019-01-22T19:35:29.567Z,26.53
2019-01-22T19:37:58.858Z,20.00
2019-01-22T19:40:28.079Z,18.60
2019-01-22T19:42:57.272Z,19.03
2019-01-22T19:45:28.882Z,20.60
2019-01-22T19:47:58.016Z,20.30
2019-01-22T19:50:27.133Z,19.50
2019-01-22T19:52:56.417Z,28.83
2019-01-22T19:55:25.576Z,31.37
2019-01-22T19:57:54.758Z,28.13
2019-01-22T20:00:29.771Z,22.27
2019-01-22T20:02:58.970Z,26.93
2019-01-22T20:05:28.144Z,25.73
2019-01-22T20:07:57.598Z,21.63
2019-01-22T20:10:26.697Z,18.73
2019-01-22T20:12:55.757Z,20.37
2019-01-22T20:15:25.065Z,20.20
2019-01-22T20:17:54.332Z,20.87
2019-01-22T20:20:23.523Z,21.60
2019-01-22T20:22:52.867Z,24.00
2019-01-22T20:25:22.004Z,21.47
2019-01-22T20:27:51.091Z,22.33
2019-01-22T20:30:26.174Z,25.60
2019-01-22T20:32:55.297Z,24.93
2019-01-22T20:35:24.399Z,25.17
2019-01-22T20:37:53.823Z,24.00
2019-01-22T20:40:23.067Z,22.07
2019-01-22T20:42:52.217Z,23.23
2019-01-22T20:45:22.694Z,22.40
2019-01-22T20:47:51.797Z,25.67
2019-01-22T20:50:20.947Z,28.23
2019-01-22T20:52:50.322Z,28.73
2019-01-22T20:55:20.004Z,28.57
2019-01-22T20:57:54.857Z,30.50
2019-01-22T21:00:21.554Z,31.97
2019-01-22T21:02:50.771Z,33.23
2019-01-22T21:05:21.504Z,32.47
2019-01-22T21:07:50.800Z,33.23
2019-01-22T21:10:27.587Z,37.07
2019-01-22T21:12:57.199Z,36.63
2019-01-22T21:15:26.521Z,36.73
2019-01-22T21:17:55.624Z,37.63
2019-01-22T21:20:24.732Z,36.47
2019-01-22T21:22:54.147Z,36.80
2019-01-22T21:25:23.467Z,38.40
2019-01-22T21:27:52.892Z,36.07
2019-01-22T21:30:30.202Z,33.53
2019-01-22T21:32:59.506Z,33.17
2019-01-22T21:35:28.641Z,34.00
2019-01-22T21:37:57.851Z,34.60
2019-01-22T21:40:27.024Z,33.23
2019-01-22T21:42:56.248Z,33.50
2019-01-22T21:45:25.628Z,32.30
2019-01-22T21:47:55.101Z,33.13
2019-01-22T21:50:24.265Z,32.57
2019-01-22T21:52:53.381Z,31.30
2019-01-22T21:55:22.846Z,31.50
2019-01-22T21:57:52.025Z,30.10
2019-01-22T22:00:22.488Z,31.17
2019-01-22T22:02:51.683Z,30.40
2019-01-22T22:05:22.689Z,28.20
2019-01-22T22:07:51.821Z,28.87
2019-01-22T22:10:21.876Z,27.17
2019-01-22T22:12:50.953Z,29.33
2019-01-22T22:15:21.838Z,29.57
2019-01-22T22:17:50.997Z,30.03
2019-01-22T22:20:20.063Z,30.97
2019-01-22T22:22:49.297Z,30.97
2019-01-22T22:25:19.970Z,29.83
2019-01-22T22:27:49.146Z,31.00
2019-01-22T22:30:26.571Z,29.97
2019-01-22T22:32:55.738Z,31.03
2019-01-22T22:35:24.842Z,30.90
2019-01-22T22:37:54.181Z,30.53
2019-01-22T22:40:23.400Z,32.70
2019-01-22T22:42:52.516Z,31.93
2019-01-22T22:45:22.255Z,32.27
2019-01-22T22:47:51.478Z,31.77
2019-01-22T22:50:22.708Z,33.47
2019-01-22T22:52:52.147Z,30.40
2019-01-22T22:55:21.300Z,30.83
2019-01-22T22:57:50.514Z,31.53
2019-01-22T23:00:42.212Z,33.60
2019-01-22T23:03:11.583Z,31.60
2019-01-22T23:05:40.705Z,30.07
2019-01-22T23:08:09.857Z,31.43
2019-01-22T23:10:39.043Z,28.87
2019-01-22T23:13:08.193Z,28.77
2019-01-22T23:15:37.286Z,30.53
2019-01-22T23:18:06.375Z,28.57
2019-01-22T23:20:35.526Z,29.77
2019-01-22T23:23:04.705Z,29.13
2019-01-22T23:25:33.825Z,27.90
2019-01-22T23:28:02.940Z,29.27
2019-01-22T23:30:32.046Z,29.03
2019-01-22T23:33:01.173Z,28.47
2019-01-22T23:35:30.317Z,28.07
2019-01-22T23:37:59.434Z,26.73
2019-01-22T23:40:28.621Z,27.87
2019-01-22T23:42:57.739Z,28.13
2019-01-22T23:45:26.854Z,27.00
2019-01-22T23:47:55.972Z,26.23
2019-01-22T23:50:25.094Z,25.97
2019-01-22T23:52:54.197Z,25.43
2019-01-22T23:55:23.311Z,24.90
2019-01-22T23:57:52.466Z,24.43
